This demonstration page uses our WeatherBlox Daily Observations layout. Learn more.

41.55636, -103.73856

Hourly Observations for March 31, 2015

Temp ( °F °C ) Dew Point ( °F °C ) Humidity (%) Winds ( mph kmh ) Pressure ( in mb ) Visibility ( mi km ) Precip ( " mm )
12:53 am 00:53 Clear 42 5.6 27 -2.8 55 55 N 5 7 30.01 1016 10 16.0934 0 0
1:53 am 01:53 Clear 36 2.2 26 -3.3 67 67 NW 6 9 30.02 1017 10 16.0934 0 0
2:53 am 02:53 Clear 35 1.7 25 -3.9 67 67 NNW 7 11 30.01 1016 10 16.0934 0 0
3:53 am 03:53 Clear 33 0.6 25 -3.9 72 72 Calm 30 1016 10 16.0934 0 0
4:53 am 04:53 Clear 31 -0.6 23 -5 72 72 ESE 3 6 30 1016 10 16.0934 0 0
5:53 am 05:53 Clear 30 -1.1 24 -4.4 79 79 WNW 7 11 30 1016 10 16.0934 0 0
6:53 am 06:53 Sunny 33 0.6 25 -3.9 72 72 NW 5 7 30.01 1016 10 16.0934 0 0
7:53 am 07:53 Sunny 36 2.2 26 -3.3 67 67 VRB 7 11 30.02 1017 10 16.0934 0 0
8:53 am 08:53 Sunny 46 7.8 28 -2.2 50 50 WNW 7 11 29.99 1016 10 16.0934 0 0
9:53 am 09:53 Sunny 52 11.1 30 -1.1 43 43 WNW 6 9 29.98 1015 10 16.0934 0 0
10:53 am 10:53 Sunny 60 15.6 30 -1.1 32 32 Calm 29.94 1014 10 16.0934 0 0
11:53 am 11:53 Sunny 67 19.4 28 -2.2 23 23 Calm 29.91 1013 10 16.0934 0 0
12:53 pm 12:53 Sunny 72 22.2 26 -3.3 18 18 S 7 11 29.85 1011 10 16.0934 0 0
1:53 pm 13:53 Sunny 76 24.4 22 -5.6 13 13 Calm 29.82 1010 10 16.0934 0 0
2:53 pm 14:53 Sunny 79 26.1 21 -6.1 11 11 VRB 6 9 29.76 1008 10 16.0934 0 0
3:53 pm 15:53 Sunny 81 27.2 20 -6.7 10 10 W 10 17 29.72 1007 10 16.0934 0 0
4:53 pm 16:53 Sunny 79 26.1 19 -7.2 10 10 S 9 15 29.71 1006 10 16.0934 0 0
5:53 pm 17:53 Sunny 76 24.4 21 -6.1 13 13 S 9 15 29.7 1006 10 16.0934 0 0
6:53 pm 18:53 Sunny 72 22.2 22 -5.6 15 15 SE 8 13 29.68 1005 10 16.0934 0 0
7:53 pm 19:53 Clear 62 16.7 25 -3.9 24 24 E 8 13 29.7 1006 10 16.0934 0 0
8:53 pm 20:53 Clear 62 16.7 23 -5 22 22 ESE 9 15 29.67 1005 10 16.0934 0 0
9:53 pm 21:53 Clear 55 12.8 24 -4.4 30 30 SE 8 13 29.66 1005 10 16.0934 0 0
10:53 pm 22:53 Clear 51 10.6 23 -5 33 33 ESE 8 13 29.63 1004 10 16.0934 0 0
11:53 pm 23:53 Clear 59 15 21 -6.1 23 23 Calm 29.58 1002 10 16.0934 0 0

Powered by AerisWeather